Time;durP1;ratioP1;P1;durP2;ratioP2;P2;SDS_P1;SDS_P2;PMS_P1;PMS_P2;Temp;Humidity;BMP_temperature;BMP_pressure;BME280_temperature;BME280_humidity;BME280_pressure;Samples;Min_cycle;Max_cycle;Signal;HPM_P1;HPM_P2
2021/06/28 00:00:39;;;;;;;7.50;6.77;;;21.00;99.90;;;;;;5080315;28;20549;-84
2021/06/28 00:03:06;;;;;;;9.33;6.83;;;21.00;99.90;;;;;;5082221;28;20489;-87
2021/06/28 00:05:33;;;;;;;7.77;6.10;;;20.90;99.90;;;;;;5079269;28;20453;-84
2021/06/28 00:08:00;;;;;;;7.37;6.67;;;20.90;99.90;;;;;;5074901;28;20463;-83
2021/06/28 00:10:31;;;;;;;6.70;5.77;;;20.90;99.90;;;;;;5070373;28;20458;-84
2021/06/28 00:13:00;;;;;;;8.47;5.60;;;20.90;99.90;;;;;;5078447;28;20477;-84
2021/06/28 00:15:32;;;;;;;14.23;6.03;;;20.80;99.90;;;;;;5082255;28;20871;-85
2021/06/28 00:18:00;;;;;;;5.60;5.10;;;20.80;99.90;;;;;;5077342;28;20462;-83
2021/06/28 00:20:27;;;;;;;10.07;6.60;;;20.70;99.90;;;;;;5079995;28;20484;-84
2021/06/28 00:22:54;;;;;;;11.10;6.30;;;20.70;99.90;;;;;;5079635;28;20912;-86
2021/06/28 00:25:22;;;;;;;8.53;5.90;;;20.70;99.90;;;;;;5077693;28;20463;-86
2021/06/28 00:27:50;;;;;;;12.43;6.20;;;20.60;99.90;;;;;;5077408;28;20500;-83
2021/06/28 00:30:20;;;;;;;6.60;5.80;;;20.60;99.90;;;;;;5082594;28;20464;-83
2021/06/28 00:32:48;;;;;;;8.30;6.77;;;20.60;99.90;;;;;;5082392;28;20470;-83
2021/06/28 00:35:17;;;;;;;9.50;7.10;;;20.60;99.90;;;;;;5075460;28;20514;-83
2021/06/28 00:37:45;;;;;;;8.93;6.87;;;20.60;99.90;;;;;;5076822;28;20533;-87
2021/06/28 00:40:15;;;;;;;11.90;6.70;;;20.50;99.90;;;;;;5081130;28;20489;-84
2021/06/28 00:42:42;;;;;;;9.73;7.00;;;20.50;99.90;;;;;;5079396;28;20457;-83
2021/06/28 00:45:19;;;;;;;10.37;6.97;;;20.50;99.90;;;;;;5080735;28;20464;-83
2021/06/28 00:47:46;;;;;;;7.47;6.67;;;20.50;99.90;;;;;;5073030;28;20562;-83
2021/06/28 00:50:14;;;;;;;6.67;6.13;;;20.50;99.90;;;;;;5079248;28;20462;-84
2021/06/28 00:52:41;;;;;;;6.60;5.90;;;20.50;99.90;;;;;;5076782;28;20453;-83
2021/06/28 00:55:10;;;;;;;12.97;5.90;;;20.50;99.90;;;;;;5079152;28;20462;-83
2021/06/28 00:57:38;;;;;;;8.43;5.47;;;20.40;99.90;;;;;;5077477;28;20762;-84
2021/06/28 01:00:07;;;;;;;18.53;6.00;;;20.40;99.90;;;;;;5075890;28;20778;-83
2021/06/28 01:02:36;;;;;;;8.97;5.13;;;20.40;99.90;;;;;;5078804;28;20878;-87
2021/06/28 01:05:05;;;;;;;8.90;6.00;;;20.30;99.90;;;;;;5076514;28;20463;-84
2021/06/28 01:07:32;;;;;;;7.70;6.10;;;20.30;99.90;;;;;;5073775;28;20470;-83
2021/06/28 01:09:59;;;;;;;7.77;6.03;;;20.30;99.90;;;;;;5077307;28;20497;-83
2021/06/28 01:12:26;;;;;;;13.70;6.67;;;20.30;99.90;;;;;;5080629;28;20716;-85
2021/06/28 01:14:54;;;;;;;12.10;7.93;;;20.30;99.90;;;;;;5073792;28;21180;-83
2021/06/28 01:17:21;;;;;;;8.43;6.80;;;20.30;99.90;;;;;;5085501;28;20459;-83
2021/06/28 01:19:57;;;;;;;12.90;7.00;;;20.30;99.90;;;;;;5073249;28;20494;-85
2021/06/28 01:22:26;;;;;;;6.70;6.00;;;20.30;99.90;;;;;;5076449;28;20545;-85
2021/06/28 01:24:57;;;;;;;9.20;6.60;;;20.30;99.90;;;;;;5077400;28;20467;-84
2021/06/28 01:27:25;;;;;;;11.87;6.57;;;20.30;99.90;;;;;;5080629;28;20816;-83
2021/06/28 01:29:53;;;;;;;9.73;5.93;;;20.30;99.90;;;;;;5072291;28;20466;-83
2021/06/28 01:32:21;;;;;;;6.47;5.60;;;20.20;99.90;;;;;;5082052;28;20502;-84
2021/06/28 01:34:48;;;;;;;7.30;5.00;;;20.20;99.90;;;;;;5075005;28;20566;-83
2021/06/28 01:37:22;;;;;;;8.13;5.23;;;20.20;99.90;;;;;;5080358;28;20553;-83
2021/06/28 01:39:50;;;;;;;7.90;5.27;;;20.10;99.90;;;;;;5077471;28;20479;-84
2021/06/28 01:42:19;;;;;;;7.93;5.20;;;20.10;99.90;;;;;;5077251;28;20469;-84
2021/06/28 01:44:46;;;;;;;11.37;6.00;;;20.10;99.90;;;;;;5080503;28;20574;-83
2021/06/28 01:47:13;;;;;;;6.70;5.43;;;20.10;99.90;;;;;;5079840;28;20881;-85
2021/06/28 01:49:40;;;;;;;9.40;5.50;;;20.10;99.90;;;;;;5078173;28;20975;-83
2021/06/28 01:52:08;;;;;;;6.50;5.90;;;20.10;99.90;;;;;;5076555;28;20995;-87
2021/06/28 01:54:35;;;;;;;10.13;6.30;;;20.10;99.90;;;;;;5078324;28;20539;-83
2021/06/28 01:57:03;;;;;;;17.00;5.53;;;20.10;99.90;;;;;;5083963;28;20463;-83
2021/06/28 01:59:35;;;;;;;8.80;5.53;;;20.10;99.90;;;;;;5071723;28;20455;-83
2021/06/28 02:02:04;;;;;;;12.33;5.33;;;20.10;99.90;;;;;;5083991;28;20575;-86
2021/06/28 02:04:31;;;;;;;10.37;5.47;;;20.10;99.90;;;;;;5076596;28;20484;-85
2021/06/28 02:06:59;;;;;;;15.10;6.30;;;20.00;99.90;;;;;;5077063;28;20469;-83
2021/06/28 02:09:26;;;;;;;15.50;7.20;;;20.00;99.90;;;;;;5080533;28;20468;-83
2021/06/28 02:11:53;;;;;;;8.83;6.60;;;20.00;99.90;;;;;;5083948;28;20512;-83
2021/06/28 02:14:21;;;;;;;9.03;6.50;;;19.90;99.90;;;;;;5084713;28;20457;-83
2021/06/28 02:16:50;;;;;;;17.27;5.70;;;19.90;99.90;;;;;;5079442;28;20551;-83
2021/06/28 02:19:18;;;;;;;7.57;6.00;;;19.90;99.90;;;;;;5080761;28;20992;-85
2021/06/28 02:21:47;;;;;;;6.90;6.23;;;19.80;99.90;;;;;;5084143;28;20838;-84
2021/06/28 02:24:15;;;;;;;7.30;6.60;;;19.80;99.90;;;;;;5085807;28;20456;-83
2021/06/28 02:26:43;;;;;;;14.97;7.47;;;19.80;99.90;;;;;;5077943;28;20460;-84
2021/06/28 02:29:10;;;;;;;10.20;6.00;;;19.80;99.90;;;;;;5079244;28;20983;-84
2021/06/28 02:31:38;;;;;;;10.77;6.60;;;19.80;99.90;;;;;;5083121;28;20465;-83
2021/06/28 02:34:06;;;;;;;10.27;6.37;;;19.80;99.90;;;;;;5079768;28;20458;-83
2021/06/28 02:36:33;;;;;;;8.83;6.33;;;19.70;99.90;;;;;;5083358;28;20810;-87
2021/06/28 02:39:01;;;;;;;11.00;6.60;;;19.70;99.90;;;;;;5079683;28;20469;-83
2021/06/28 02:41:29;;;;;;;10.40;8.83;;;19.80;99.90;;;;;;5079502;28;20493;-83
2021/06/28 02:43:56;;;;;;;11.33;7.33;;;19.70;99.90;;;;;;5077951;28;21020;-84
2021/06/28 02:46:24;;;;;;;28.40;7.33;;;19.70;99.90;;;;;;5082783;28;20483;-85
2021/06/28 02:48:51;;;;;;;7.60;5.83;;;19.70;99.90;;;;;;5080211;28;20461;-85
2021/06/28 02:51:20;;;;;;;13.47;6.27;;;19.70;99.90;;;;;;5080840;28;20569;-84
2021/06/28 02:53:47;;;;;;;12.90;7.10;;;19.70;99.90;;;;;;5083476;28;20465;-83
2021/06/28 02:56:16;;;;;;;8.93;6.90;;;19.70;99.90;;;;;;5077104;28;20465;-87
2021/06/28 02:58:45;;;;;;;11.10;6.80;;;19.70;99.90;;;;;;5079955;28;20499;-84
2021/06/28 03:01:12;;;;;;;14.73;7.77;;;19.70;99.90;;;;;;5079509;28;20959;-86
2021/06/28 03:03:40;;;;;;;10.07;6.87;;;19.70;99.90;;;;;;5083403;28;20465;-87
2021/06/28 03:06:07;;;;;;;9.83;6.23;;;19.70;99.90;;;;;;5083846;28;20466;-83
2021/06/28 03:08:36;;;;;;;7.93;6.47;;;19.70;99.90;;;;;;5077525;28;21045;-83
2021/06/28 03:11:04;;;;;;;12.40;7.77;;;19.70;99.90;;;;;;5085177;28;20540;-83
2021/06/28 03:13:31;;;;;;;13.93;7.20;;;19.70;99.90;;;;;;5076250;28;20458;-83
2021/06/28 03:15:59;;;;;;;8.30;6.20;;;19.70;99.90;;;;;;5076894;28;20949;-83
2021/06/28 03:18:25;;;;;;;14.10;7.10;;;19.70;99.90;;;;;;5075153;28;20454;-83
2021/06/28 03:20:53;;;;;;;9.50;5.80;;;19.70;99.90;;;;;;5074712;28;20494;-84
2021/06/28 03:23:20;;;;;;;10.40;7.10;;;19.70;99.90;;;;;;5079940;28;20476;-83
2021/06/28 03:25:49;;;;;;;8.73;5.67;;;19.60;99.90;;;;;;5076266;28;20464;-84
2021/06/28 03:28:15;;;;;;;12.23;7.00;;;19.60;99.90;;;;;;5078320;28;20455;-85
2021/06/28 03:30:43;;;;;;;10.77;7.43;;;19.60;99.90;;;;;;5080197;28;20810;-83
2021/06/28 03:33:10;;;;;;;12.70;6.40;;;19.60;99.90;;;;;;5075762;28;20465;-83
2021/06/28 03:35:37;;;;;;;15.00;6.70;;;19.60;99.90;;;;;;5080386;28;21038;-85
2021/06/28 03:38:05;;;;;;;14.67;6.13;;;19.60;99.90;;;;;;5081214;28;20462;-83
2021/06/28 03:40:33;;;;;;;5.70;5.17;;;19.50;99.90;;;;;;5081512;28;20605;-85
2021/06/28 03:43:04;;;;;;;12.37;6.40;;;19.50;99.90;;;;;;5074543;28;20463;-84
2021/06/28 03:45:31;;;;;;;11.33;5.90;;;19.50;99.90;;;;;;5078137;28;20826;-83
2021/06/28 03:47:58;;;;;;;9.30;5.73;;;19.50;99.90;;;;;;5075197;28;20474;-83
2021/06/28 03:50:25;;;;;;;8.93;5.43;;;19.50;99.90;;;;;;5075772;28;20592;-83
2021/06/28 03:52:53;;;;;;;12.97;6.17;;;19.50;99.90;;;;;;5087232;28;20828;-86
2021/06/28 03:55:20;;;;;;;12.47;6.50;;;19.50;99.90;;;;;;5082287;28;20566;-84
2021/06/28 03:57:47;;;;;;;9.13;6.43;;;19.50;99.90;;;;;;5082531;28;20504;-83
2021/06/28 04:00:18;;;;;;;10.40;6.60;;;19.60;99.90;;;;;;5081817;28;20542;-83
2021/06/28 04:02:46;;;;;;;10.20;6.77;;;19.60;99.90;;;;;;5082480;28;20557;-84
2021/06/28 04:05:16;;;;;;;11.70;6.70;;;19.60;99.90;;;;;;5077869;28;20492;-83
2021/06/28 04:07:43;;;;;;;7.83;5.13;;;19.60;99.90;;;;;;5079378;28;20504;-84
2021/06/28 04:10:11;;;;;;;7.67;5.87;;;19.50;99.90;;;;;;5076975;28;20842;-83
2021/06/28 04:12:39;;;;;;;10.03;5.80;;;19.50;99.90;;;;;;5077113;28;20492;-84
2021/06/28 04:15:10;;;;;;;10.20;6.13;;;19.50;99.90;;;;;;5075660;28;20972;-84
2021/06/28 04:17:38;;;;;;;10.67;7.00;;;19.50;99.90;;;;;;5073937;28;20533;-84
2021/06/28 04:20:06;;;;;;;12.50;7.53;;;19.50;99.90;;;;;;5082097;28;20546;-83
2021/06/28 04:22:33;;;;;;;9.67;8.67;;;19.60;99.90;;;;;;5072325;28;20481;-83
2021/06/28 04:25:00;;;;;;;15.73;9.13;;;19.60;99.90;;;;;;5076937;28;20475;-83
2021/06/28 04:27:27;;;;;;;12.63;9.53;;;19.60;99.90;;;;;;5080446;28;20492;-86
2021/06/28 04:29:54;;;;;;;17.93;8.47;;;19.60;99.90;;;;;;5081321;28;21053;-83
2021/06/28 04:32:21;;;;;;;24.97;10.30;;;19.70;99.90;;;;;;5083310;28;20492;-83
2021/06/28 04:34:49;;;;;;;14.23;9.57;;;19.70;99.90;;;;;;5074021;28;20504;-84
2021/06/28 04:37:16;;;;;;;21.40;11.13;;;19.80;99.90;;;;;;5074503;28;20833;-83
2021/06/28 04:39:44;;;;;;;24.30;11.07;;;19.80;99.90;;;;;;5077259;28;20548;-84
2021/06/28 04:42:11;;;;;;;33.67;13.17;;;19.80;99.90;;;;;;5077426;28;20485;-85
2021/06/28 04:44:38;;;;;;;20.07;11.10;;;19.90;99.90;;;;;;5080797;28;20476;-83
2021/06/28 04:47:05;;;;;;;25.40;11.50;;;19.90;99.90;;;;;;5080277;28;20557;-85
2021/06/28 04:49:32;;;;;;;20.43;12.17;;;20.00;99.90;;;;;;5077261;28;20953;-86
2021/06/28 04:52:01;;;;;;;20.90;11.70;;;20.10;99.90;;;;;;5076837;28;20465;-83
2021/06/28 04:54:28;;;;;;;23.03;13.37;;;20.10;99.90;;;;;;5078004;28;20482;-84
2021/06/28 04:56:55;;;;;;;17.53;12.53;;;20.10;99.90;;;;;;5082216;28;20462;-83
2021/06/28 04:59:22;;;;;;;21.27;12.40;;;20.20;99.90;;;;;;5073114;28;20968;-84
2021/06/28 05:01:49;;;;;;;26.90;12.80;;;20.20;99.90;;;;;;5085747;28;20494;-83
2021/06/28 05:04:16;;;;;;;16.73;12.13;;;20.20;99.90;;;;;;5077040;28;20457;-84
2021/06/28 05:06:43;;;;;;;16.33;12.50;;;20.30;99.90;;;;;;5078195;28;20462;-84
2021/06/28 05:09:11;;;;;;;23.60;13.00;;;20.30;99.90;;;;;;5077760;28;20488;-85
2021/06/28 05:11:38;;;;;;;22.53;13.80;;;20.40;99.90;;;;;;5076044;28;20569;-84
2021/06/28 05:14:05;;;;;;;20.67;13.63;;;20.40;99.90;;;;;;5078084;28;20534;-87
2021/06/28 05:16:32;;;;;;;24.63;14.90;;;20.50;99.90;;;;;;5071215;28;20455;-84
2021/06/28 05:18:59;;;;;;;30.23;15.50;;;20.50;99.90;;;;;;5077263;28;20472;-86
2021/06/28 05:21:27;;;;;;;22.70;14.97;;;20.50;99.90;;;;;;5077840;28;21083;-84
2021/06/28 05:23:54;;;;;;;21.83;15.07;;;20.60;99.90;;;;;;5076899;28;20479;-83
2021/06/28 05:26:22;;;;;;;24.47;15.83;;;20.60;99.90;;;;;;5066908;28;20465;-83
2021/06/28 05:28:49;;;;;;;26.30;14.17;;;20.70;99.90;;;;;;5077481;28;20469;-82
2021/06/28 05:31:16;;;;;;;21.70;14.80;;;20.70;99.90;;;;;;5077110;28;20473;-84
2021/06/28 05:33:43;;;;;;;20.83;14.90;;;20.70;99.90;;;;;;5078999;28;20459;-83
2021/06/28 05:36:09;;;;;;;21.13;14.77;;;20.80;99.90;;;;;;5081242;28;20546;-86
2021/06/28 05:38:37;;;;;;;21.53;15.57;;;20.80;99.90;;;;;;5077315;28;20527;-84
2021/06/28 05:41:04;;;;;;;19.30;15.07;;;20.90;99.90;;;;;;5077730;28;20557;-83
2021/06/28 05:43:32;;;;;;;21.33;16.00;;;20.90;99.90;;;;;;5073454;28;20472;-83
2021/06/28 05:45:59;;;;;;;20.53;14.50;;;20.90;99.90;;;;;;5080139;28;20975;-71
2021/06/28 05:48:26;;;;;;;24.03;15.00;;;21.00;99.90;;;;;;5088514;28;20473;-71
2021/06/28 05:50:53;;;;;;;18.53;14.00;;;21.00;99.90;;;;;;5076204;28;20460;-71
2021/06/28 05:53:20;;;;;;;15.37;13.63;;;21.10;99.90;;;;;;5073303;28;20979;-72
2021/06/28 05:55:47;;;;;;;22.90;13.60;;;21.10;99.90;;;;;;5079489;28;20460;-70
2021/06/28 05:58:17;;;;;;;17.43;14.13;;;21.20;99.90;;;;;;5095697;28;20460;-70
2021/06/28 06:00:45;;;;;;;15.83;12.80;;;21.20;99.90;;;;;;5081472;28;21030;-71
2021/06/28 06:03:12;;;;;;;19.47;14.70;;;21.30;99.90;;;;;;5071477;28;20478;-71
2021/06/28 06:05:39;;;;;;;16.17;13.30;;;21.30;99.90;;;;;;5072011;28;20553;-71
2021/06/28 06:08:07;;;;;;;19.67;14.73;;;21.40;99.90;;;;;;5075049;28;20468;-70
2021/06/28 06:10:34;;;;;;;17.83;11.83;;;21.50;99.90;;;;;;5079039;28;20457;-71
2021/06/28 06:13:01;;;;;;;15.97;14.30;;;21.50;99.90;;;;;;5075907;28;20457;-71
2021/06/28 06:15:27;;;;;;;16.13;12.87;;;21.50;99.90;;;;;;5075883;28;20453;-71
2021/06/28 06:17:56;;;;;;;16.33;12.87;;;21.60;99.90;;;;;;5079114;28;20990;-71
2021/06/28 06:20:23;;;;;;;15.13;12.27;;;21.60;99.90;;;;;;5079542;28;22477;-71
2021/06/28 06:22:52;;;;;;;15.70;12.20;;;21.70;99.90;;;;;;5075610;28;20856;-71
2021/06/28 06:25:19;;;;;;;16.80;12.50;;;21.80;99.90;;;;;;5073954;28;20518;-71
2021/06/28 06:27:46;;;;;;;16.17;12.47;;;21.80;99.90;;;;;;5076142;28;20461;-71
2021/06/28 06:30:14;;;;;;;15.50;13.30;;;21.80;99.90;;;;;;5077800;28;20462;-71
2021/06/28 06:32:40;;;;;;;18.50;13.57;;;21.90;99.90;;;;;;5078139;28;20583;-71
2021/06/28 06:35:10;;;;;;;19.53;14.10;;;21.90;99.90;;;;;;5066291;28;20549;-71
2021/06/28 06:37:37;;;;;;;15.00;12.67;;;22.00;99.90;;;;;;5077531;28;20864;-71
2021/06/28 06:40:05;;;;;;;14.90;13.30;;;22.00;99.90;;;;;;5072960;28;20495;-71
2021/06/28 06:42:31;;;;;;;19.77;14.47;;;22.00;99.90;;;;;;5073021;28;20497;-71
2021/06/28 06:44:59;;;;;;;19.33;14.00;;;22.10;99.90;;;;;;5073533;28;20722;-71
2021/06/28 06:47:26;;;;;;;18.10;13.40;;;22.10;99.90;;;;;;5079890;28;20458;-71
2021/06/28 06:49:53;;;;;;;17.90;14.70;;;22.10;99.90;;;;;;5080234;28;20473;-71
2021/06/28 06:52:21;;;;;;;19.17;14.73;;;22.20;99.90;;;;;;5071629;28;20458;-71
2021/06/28 06:54:48;;;;;;;19.77;14.57;;;22.20;99.90;;;;;;5070293;28;20462;-71
2021/06/28 06:57:15;;;;;;;13.67;12.27;;;22.20;99.90;;;;;;5074072;28;20524;-71
2021/06/28 06:59:42;;;;;;;14.80;12.80;;;22.30;99.90;;;;;;5069700;28;20471;-72
2021/06/28 07:02:09;;;;;;;18.23;13.90;;;22.30;99.90;;;;;;5076987;28;21053;-71
2021/06/28 07:04:36;;;;;;;14.50;12.60;;;22.40;99.90;;;;;;5080028;28;20462;-71
2021/06/28 07:07:03;;;;;;;17.47;12.87;;;22.50;99.90;;;;;;5074554;28;20466;-71
2021/06/28 07:09:31;;;;;;;16.83;14.07;;;22.50;99.90;;;;;;5072470;28;20462;-71
2021/06/28 07:11:58;;;;;;;18.03;15.20;;;22.60;99.90;;;;;;5073691;28;20458;-71
2021/06/28 07:14:25;;;;;;;23.93;14.80;;;22.60;99.90;;;;;;5078279;28;20461;-71
2021/06/28 07:16:52;;;;;;;20.67;14.13;;;22.70;99.90;;;;;;5072471;28;20541;-85
2021/06/28 07:19:19;;;;;;;15.77;14.10;;;22.80;99.90;;;;;;5072672;28;20617;-85
2021/06/28 07:21:48;;;;;;;17.67;15.70;;;22.90;99.90;;;;;;5076362;28;20474;-84
2021/06/28 07:24:16;;;;;;;17.77;14.77;;;22.90;99.90;;;;;;5079924;28;20466;-84
2021/06/28 07:26:44;;;;;;;17.40;15.60;;;23.00;99.90;;;;;;5076427;28;20854;-86
2021/06/28 07:29:12;;;;;;;17.80;15.30;;;23.10;99.90;;;;;;5070258;28;20467;-84
2021/06/28 07:31:38;;;;;;;18.03;14.37;;;23.10;99.90;;;;;;5082683;28;20607;-87
2021/06/28 07:34:05;;;;;;;16.80;14.80;;;23.10;99.90;;;;;;5074695;28;20826;-86
2021/06/28 07:36:32;;;;;;;21.40;14.37;;;23.00;99.90;;;;;;5078094;28;20461;-85
2021/06/28 07:39:02;;;;;;;20.40;14.63;;;23.00;99.90;;;;;;5078520;28;20526;-86
2021/06/28 07:41:29;;;;;;;19.73;16.93;;;23.10;99.90;;;;;;5076596;28;20489;-85
2021/06/28 07:43:58;;;;;;;23.27;16.43;;;23.10;99.90;;;;;;5069850;28;20507;-84
2021/06/28 07:46:25;;;;;;;25.30;15.17;;;23.20;99.90;;;;;;5077867;28;20486;-85
2021/06/28 07:48:53;;;;;;;21.77;16.13;;;23.30;99.90;;;;;;5075873;28;20473;-85
2021/06/28 07:51:20;;;;;;;20.00;15.67;;;23.40;99.90;;;;;;5078506;28;20454;-86
2021/06/28 07:53:47;;;;;;;16.63;14.67;;;23.50;99.90;;;;;;5076655;28;20462;-86
2021/06/28 07:56:18;;;;;;;14.20;12.07;;;23.50;99.90;;;;;;5075177;28;20862;-86
2021/06/28 07:58:46;;;;;;;18.00;13.63;;;23.70;99.90;;;;;;5073196;28;20446;-86
2021/06/28 08:01:15;;;;;;;14.57;12.90;;;23.80;99.90;;;;;;5076313;28;20484;-87
2021/06/28 08:03:45;;;;;;;18.70;13.17;;;23.90;99.90;;;;;;5071668;28;20543;-86
2021/06/28 08:06:13;;;;;;;13.77;12.00;;;24.00;99.90;;;;;;5074835;28;20475;-85
2021/06/28 08:08:40;;;;;;;19.40;12.80;;;24.10;99.90;;;;;;5072048;28;20922;-86
2021/06/28 08:11:09;;;;;;;17.53;12.83;;;24.20;99.90;;;;;;5069264;28;20561;-86
2021/06/28 08:13:36;;;;;;;14.33;12.47;;;24.30;99.90;;;;;;5071011;28;20459;-86
2021/06/28 08:16:03;;;;;;;18.53;13.73;;;24.30;99.90;;;;;;5068499;28;20523;-87
2021/06/28 08:18:32;;;;;;;18.07;13.20;;;24.40;99.90;;;;;;5069485;28;20819;-85
2021/06/28 08:20:59;;;;;;;13.60;11.60;;;24.40;99.90;;;;;;5073694;28;20982;-85
2021/06/28 08:23:25;;;;;;;16.20;13.40;;;24.40;99.90;;;;;;5070958;28;20574;-86
2021/06/28 08:25:53;;;;;;;17.07;14.60;;;24.50;99.90;;;;;;5075345;28;20463;-86
2021/06/28 08:28:20;;;;;;;20.33;12.20;;;24.50;99.90;;;;;;5073497;28;20466;-86
2021/06/28 08:30:47;;;;;;;13.60;12.20;;;24.60;99.90;;;;;;5075891;28;20461;-85
2021/06/28 08:33:13;;;;;;;15.57;12.80;;;24.60;99.90;;;;;;5075994;28;20457;-86
2021/06/28 08:35:42;;;;;;;18.70;12.40;;;24.70;99.90;;;;;;5075377;28;20454;-87
2021/06/28 08:38:09;;;;;;;17.13;11.90;;;24.70;99.90;;;;;;5075664;28;20889;-86
2021/06/28 08:40:37;;;;;;;12.43;10.13;;;24.80;99.90;;;;;;5070224;28;20890;-86
2021/06/28 08:43:04;;;;;;;13.70;11.20;;;24.80;99.90;;;;;;5073316;28;20584;-87
2021/06/28 08:45:35;;;;;;;14.43;11.57;;;24.90;99.90;;;;;;5071511;28;20458;-87
2021/06/28 08:48:03;;;;;;;14.50;10.53;;;24.90;99.90;;;;;;5075658;28;20518;-86
2021/06/28 08:50:30;;;;;;;14.77;11.83;;;25.00;99.90;;;;;;5069385;28;20510;-86
2021/06/28 08:52:59;;;;;;;20.27;12.40;;;25.00;99.90;;;;;;5073520;28;20552;-88
2021/06/28 08:55:28;;;;;;;16.40;11.43;;;25.00;99.90;;;;;;5074743;28;20549;-86
2021/06/28 08:57:55;;;;;;;15.27;11.50;;;25.00;99.90;;;;;;5076263;28;20494;-87
2021/06/28 09:00:23;;;;;;;20.00;11.10;;;25.10;99.90;;;;;;5077214;28;20473;-86
2021/06/28 09:02:55;;;;;;;14.50;12.47;;;25.20;99.90;;;;;;5077034;28;21067;-86
2021/06/28 09:05:22;;;;;;;17.17;12.07;;;25.20;99.90;;;;;;5072648;28;20956;-86
2021/06/28 09:07:50;;;;;;;23.07;10.43;;;25.20;99.90;;;;;;5073201;28;20467;-86
2021/06/28 09:10:43;;;;;;;16.30;12.07;;;25.30;99.90;;;;;;5077582;28;20988;-87
2021/06/28 09:13:10;;;;;;;19.03;12.83;;;25.30;99.90;;;;;;5049858;28;20466;-86
2021/06/28 09:15:39;;;;;;;18.80;13.70;;;25.40;99.90;;;;;;5080654;28;20463;-86
2021/06/28 09:18:21;;;;;;;19.73;11.20;;;25.40;99.90;;;;;;5077575;28;20461;-88
2021/06/28 09:20:49;;;;;;;19.87;12.67;;;25.40;99.90;;;;;;5074425;28;21136;-88
2021/06/28 09:23:18;;;;;;;15.77;11.93;;;25.50;99.90;;;;;;5079178;28;20550;-87
2021/06/28 09:25:46;;;;;;;12.90;9.90;;;25.50;99.90;;;;;;5076801;28;20825;-86
2021/06/28 09:28:14;;;;;;;16.27;11.70;;;25.60;99.90;;;;;;5075681;28;20925;-87
2021/06/28 09:30:46;;;;;;;14.70;10.37;;;25.60;99.90;;;;;;5074732;28;20470;-86
2021/06/28 09:33:14;;;;;;;13.30;11.60;;;25.60;99.90;;;;;;5081800;28;20461;-86
2021/06/28 09:35:42;;;;;;;15.50;10.07;;;25.60;99.90;;;;;;5081056;28;20472;-86
2021/06/28 09:38:28;;;;;;;15.67;10.30;;;25.70;99.90;;;;;;5075920;28;20621;-86
2021/06/28 09:40:57;;;;;;;16.20;10.93;;;25.70;99.90;;;;;;5077082;28;20462;-85
2021/06/28 09:43:25;;;;;;;12.13;10.83;;;25.60;99.90;;;;;;5078090;28;20482;-84
2021/06/28 09:45:55;;;;;;;17.10;10.80;;;25.70;99.90;;;;;;5074832;28;20562;-84
2021/06/28 09:48:24;;;;;;;10.80;9.10;;;25.70;99.90;;;;;;5075944;28;20976;-84
2021/06/28 09:50:51;;;;;;;15.37;9.40;;;25.60;99.90;;;;;;5076953;28;20512;-84
2021/06/28 09:53:26;;;;;;;10.87;9.33;;;25.60;99.90;;;;;;5077412;28;20556;-85
2021/06/28 09:55:53;;;;;;;12.00;9.53;;;25.60;99.90;;;;;;5072572;28;20511;-83
2021/06/28 09:58:25;;;;;;;13.93;9.20;;;25.60;99.90;;;;;;5079028;28;20955;-85
2021/06/28 10:00:55;;;;;;;10.37;8.70;;;25.60;99.90;;;;;;5069043;28;20485;-83
2021/06/28 10:03:28;;;;;;;9.97;9.03;;;25.50;99.90;;;;;;5080842;28;20490;-84
2021/06/28 10:06:04;;;;;;;9.00;8.00;;;25.50;99.90;;;;;;5076744;28;20524;-84
2021/06/28 10:08:34;;;;;;;10.60;9.10;;;25.40;99.90;;;;;;5070755;28;20461;-84
2021/06/28 10:11:15;;;;;;;9.47;8.50;;;25.30;99.90;;;;;;5077641;28;20461;-84
2021/06/28 10:13:47;;;;;;;10.70;9.70;;;25.30;99.90;;;;;;5079603;28;20458;-83
2021/06/28 10:16:14;;;;;;;10.97;9.03;;;25.30;99.90;;;;;;5084290;28;20466;-83
2021/06/28 10:18:42;;;;;;;9.93;8.97;;;25.30;99.90;;;;;;5081007;28;20548;-83
2021/06/28 10:21:09;;;;;;;9.03;8.23;;;25.20;99.90;;;;;;5078634;28;20465;-83
2021/06/28 10:23:37;;;;;;;9.60;8.60;;;25.20;99.90;;;;;;5078510;28;20502;-83
2021/06/28 10:26:05;;;;;;;9.63;8.63;;;25.20;99.90;;;;;;5077725;28;21053;-85
2021/06/28 10:28:33;;;;;;;11.10;9.93;;;25.20;99.90;;;;;;5082512;28;20466;-85
2021/06/28 10:31:02;;;;;;;11.70;10.50;;;25.20;99.90;;;;;;5081136;28;20465;-83
2021/06/28 10:33:29;;;;;;;12.07;10.17;;;25.10;99.90;;;;;;5070958;28;20472;-84
2021/06/28 10:36:02;;;;;;;11.47;9.63;;;25.20;99.90;;;;;;5072176;28;20462;-85
2021/06/28 10:38:44;;;;;;;10.07;9.10;;;25.20;99.90;;;;;;5073812;28;20462;-83
2021/06/28 10:41:12;;;;;;;9.93;9.03;;;25.20;99.90;;;;;;5072348;28;20455;-82
2021/06/28 10:43:40;;;;;;;9.47;8.57;;;25.20;99.90;;;;;;5074638;28;20482;-83
2021/06/28 10:46:10;;;;;;;8.40;7.70;;;25.30;99.90;;;;;;5076394;28;20462;-83
2021/06/28 10:48:49;;;;;;;8.13;7.30;;;25.30;99.90;;;;;;5070707;28;20467;-83
2021/06/28 10:51:19;;;;;;;9.00;7.80;;;25.50;99.90;;;;;;5070801;28;20648;-84
2021/06/28 10:54:14;;;;;;;10.13;7.20;;;25.50;99.90;;;;;;5070732;28;20501;-86
2021/06/28 10:57:01;;;;;;;6.80;6.30;;;25.70;99.90;;;;;;5074370;28;21277;-84
2021/06/28 10:59:30;;;;;;;7.63;6.90;;;25.80;99.90;;;;;;5070300;28;20489;-83
2021/06/28 11:02:04;;;;;;;7.40;6.67;;;25.90;99.90;;;;;;5073200;28;20949;-84
2021/06/28 11:04:32;;;;;;;6.57;5.97;;;26.00;99.90;;;;;;5076508;28;20489;-85
2021/06/28 11:07:08;;;;;;;6.70;6.10;;;26.20;99.90;;;;;;5075525;28;20462;-83
2021/06/28 11:09:37;;;;;;;5.53;5.00;;;26.30;99.90;;;;;;5073691;28;20485;-85
2021/06/28 11:12:06;;;;;;;6.17;5.57;;;26.50;99.90;;;;;;5073672;28;20548;-86
2021/06/28 11:14:40;;;;;;;6.60;5.53;;;26.70;99.90;;;;;;5072114;28;20454;-84
2021/06/28 11:17:10;;;;;;;9.87;5.50;;;26.90;99.90;;;;;;5081197;28;20965;-84
2021/06/28 11:20:06;;;;;;;6.17;5.67;;;27.10;99.90;;;;;;5073848;28;20449;-84
2021/06/28 11:22:42;;;;;;;5.63;5.10;;;27.20;99.90;;;;;;5078018;28;20628;-87
2021/06/28 11:25:24;;;;;;;5.20;4.70;;;27.30;99.90;;;;;;5074824;28;20457;-84
2021/06/28 11:28:19;;;;;;;5.93;5.43;;;27.40;99.90;;;;;;5078202;28;20497;-86
2021/06/28 11:30:49;;;;;;;6.63;5.63;;;27.60;99.90;;;;;;5079492;28;20562;-85
2021/06/28 11:33:31;;;;;;;5.63;5.07;;;27.80;99.90;;;;;;5076426;28;20461;-85
2021/06/28 11:35:58;;;;;;;6.00;5.50;;;27.90;99.90;;;;;;5074617;28;20467;-84
2021/06/28 11:38:26;;;;;;;6.20;5.70;;;28.00;99.90;;;;;;5077922;28;20559;-87
2021/06/28 11:40:57;;;;;;;5.47;4.60;;;28.10;99.90;;;;;;5082470;28;20476;-84
2021/06/28 11:43:39;;;;;;;6.20;5.50;;;28.20;99.90;;;;;;5071128;28;20477;-84
2021/06/28 11:46:08;;;;;;;6.93;6.30;;;28.30;99.90;;;;;;5079131;28;20453;-84
2021/06/28 11:48:38;;;;;;;5.40;4.90;;;28.50;99.90;;;;;;5074530;28;21025;-84
2021/06/28 11:51:31;;;;;;;5.20;4.80;;;28.60;99.90;;;;;;5074170;28;20503;-85
2021/06/28 11:54:01;;;;;;;7.73;6.30;;;28.60;99.90;;;;;;5054144;28;21035;-84
2021/06/28 11:56:31;;;;;;;6.97;6.37;;;28.70;99.90;;;;;;5070855;28;20901;-87
2021/06/28 11:59:04;;;;;;;6.83;6.03;;;28.70;99.90;;;;;;5075995;28;20538;-84
2021/06/28 12:01:33;;;;;;;6.70;5.63;;;28.80;99.90;;;;;;5081728;28;20770;-84
2021/06/28 12:04:04;;;;;;;8.43;6.40;;;28.80;99.90;;;;;;5081398;28;20895;-84
2021/06/28 12:06:33;;;;;;;8.07;5.83;;;28.90;99.90;;;;;;5075136;28;20557;-84
2021/06/28 12:09:15;;;;;;;6.37;5.77;;;28.90;99.90;;;;;;5070677;28;20467;-86
2021/06/28 12:11:53;;;;;;;7.87;7.07;;;29.00;99.90;;;;;;5075097;28;20549;-85
2021/06/28 12:14:31;;;;;;;6.20;5.63;;;28.90;99.90;;;;;;5072237;28;20463;-84
2021/06/28 12:16:59;;;;;;;5.87;5.37;;;28.90;99.90;;;;;;5077852;28;20772;-86
2021/06/28 12:19:28;;;;;;;5.60;5.20;;;28.80;99.90;;;;;;5070954;28;20463;-83
2021/06/28 12:21:55;;;;;;;6.80;4.93;;;28.90;99.90;;;;;;5074507;28;20462;-84
2021/06/28 12:24:22;;;;;;;5.07;4.57;;;28.90;99.90;;;;;;5073378;28;20493;-84
2021/06/28 12:27:04;;;;;;;6.13;5.63;;;29.00;99.90;;;;;;5075760;28;20461;-85
2021/06/28 12:29:34;;;;;;;5.77;4.87;;;28.90;99.90;;;;;;5066670;28;20453;-85
2021/06/28 12:32:13;;;;;;;5.40;5.00;;;28.70;99.90;;;;;;5075540;28;20543;-84
2021/06/28 12:34:47;;;;;;;5.20;4.70;;;28.60;99.90;;;;;;5076550;28;20565;-85
2021/06/28 12:37:22;;;;;;;5.60;5.10;;;28.50;99.90;;;;;;5068513;28;20485;-84
2021/06/28 12:39:49;;;;;;;5.43;4.93;;;28.40;99.90;;;;;;5071199;28;20466;-84
2021/06/28 12:42:18;;;;;;;5.20;4.80;;;28.30;99.90;;;;;;5071544;28;20464;-84
2021/06/28 12:44:46;;;;;;;4.90;4.40;;;28.20;99.90;;;;;;5075642;28;20501;-83